Time;durP1;ratioP1;P1;durP2;ratioP2;P2;SDS_P1;SDS_P2;PMS_P1;PMS_P2;Temp;Humidity;BMP_temperature;BMP_pressure;BME280_temperature;BME280_humidity;BME280_pressure;Samples;Min_cycle;Max_cycle;Signal;HPM_P1;HPM_P2
2022/11/02 00:01:46;;;;;;;5.80;1.35;;;11.60;99.90;;;;;;4939773;29;20027;-68
2022/11/02 00:04:12;;;;;;;11.15;1.25;;;11.80;99.90;;;;;;4955847;29;20032;-68
2022/11/02 00:06:37;;;;;;;7.70;1.55;;;11.90;99.90;;;;;;4955679;28;20033;-68
2022/11/02 00:09:03;;;;;;;10.45;2.30;;;12.10;99.90;;;;;;4955791;29;20023;-68
2022/11/02 00:11:28;;;;;;;9.52;1.90;;;12.30;99.90;;;;;;4938777;29;20118;-68
2022/11/02 00:13:54;;;;;;;10.15;1.35;;;12.40;99.90;;;;;;4938700;29;20078;-68
2022/11/02 00:16:21;;;;;;;9.52;1.65;;;12.30;99.90;;;;;;4938410;29;20020;-68
2022/11/02 00:18:49;;;;;;;7.95;1.73;;;12.40;99.90;;;;;;4955709;29;20019;-68
2022/11/02 00:21:17;;;;;;;10.32;1.98;;;12.50;99.90;;;;;;4938391;29;20034;-68
2022/11/02 00:23:44;;;;;;;17.80;1.85;;;12.50;99.90;;;;;;4955539;29;20117;-68
2022/11/02 00:26:10;;;;;;;10.63;1.98;;;12.50;99.90;;;;;;4938942;29;20098;-68
2022/11/02 00:28:37;;;;;;;7.45;1.45;;;12.50;99.90;;;;;;4955717;29;20039;-68
2022/11/02 00:31:02;;;;;;;11.52;1.92;;;12.50;99.90;;;;;;4938285;29;20082;-68
2022/11/02 00:33:28;;;;;;;9.73;1.83;;;12.60;99.90;;;;;;4955388;29;20019;-68
2022/11/02 00:35:54;;;;;;;18.63;1.70;;;12.50;99.90;;;;;;4938267;28;20039;-68
2022/11/02 00:38:20;;;;;;;9.15;2.05;;;12.50;99.90;;;;;;4938276;29;20034;-68
2022/11/02 00:40:45;;;;;;;9.20;1.30;;;12.30;99.90;;;;;;4938135;29;20031;-68
2022/11/02 00:43:11;;;;;;;10.25;1.60;;;12.40;99.90;;;;;;4955515;29;20020;-68
2022/11/02 00:45:36;;;;;;;10.52;1.38;;;12.40;99.90;;;;;;4937948;28;20136;-68
2022/11/02 00:48:03;;;;;;;7.30;2.08;;;12.30;99.90;;;;;;4938974;29;20022;-68
2022/11/02 00:50:28;;;;;;;8.68;1.77;;;12.30;99.90;;;;;;4938374;29;20023;-68
2022/11/02 00:52:54;;;;;;;8.32;1.60;;;12.30;99.90;;;;;;4938948;29;20028;-68
2022/11/02 00:55:20;;;;;;;13.77;1.38;;;12.40;99.90;;;;;;4938127;29;20474;-68
2022/11/02 00:57:46;;;;;;;6.15;1.67;;;12.50;99.90;;;;;;4938505;29;20031;-68
2022/11/02 01:00:13;;;;;;;13.95;1.48;;;12.40;99.90;;;;;;4938206;29;20056;-68
2022/11/02 01:02:38;;;;;;;6.82;1.55;;;12.40;99.90;;;;;;4955208;29;20030;-68
2022/11/02 01:05:05;;;;;;;6.20;1.30;;;12.50;99.90;;;;;;4938999;29;20031;-68
2022/11/02 01:07:30;;;;;;;3.80;1.17;;;12.60;99.90;;;;;;4938039;28;20020;-68
2022/11/02 01:09:56;;;;;;;8.20;1.30;;;12.60;99.90;;;;;;4941788;29;20039;-68
2022/11/02 01:12:22;;;;;;;9.13;1.60;;;12.50;99.90;;;;;;4958938;29;20023;-68
2022/11/02 01:14:48;;;;;;;5.70;1.33;;;12.40;99.90;;;;;;4942563;29;20019;-68
2022/11/02 01:17:14;;;;;;;5.95;1.38;;;12.40;99.90;;;;;;4941808;29;20031;-68
2022/11/02 01:19:40;;;;;;;8.35;1.10;;;12.40;99.90;;;;;;4959154;29;20050;-69
2022/11/02 01:22:06;;;;;;;8.15;1.40;;;12.40;99.90;;;;;;4942379;29;20134;-68
2022/11/02 01:24:31;;;;;;;14.77;1.42;;;12.40;99.90;;;;;;4942083;29;20028;-68
2022/11/02 01:26:57;;;;;;;7.10;1.80;;;12.40;99.90;;;;;;4942632;29;20032;-69
2022/11/02 01:29:22;;;;;;;5.22;1.45;;;12.40;99.90;;;;;;4959070;29;20050;-69
2022/11/02 01:31:48;;;;;;;14.02;2.15;;;12.40;99.90;;;;;;4941637;29;20023;-68
2022/11/02 01:34:14;;;;;;;3.72;1.30;;;12.50;99.90;;;;;;4942636;29;20114;-68
2022/11/02 01:36:42;;;;;;;5.32;1.33;;;12.50;99.90;;;;;;4941348;29;20398;-68
2022/11/02 01:39:08;;;;;;;11.32;1.60;;;12.50;99.90;;;;;;4941441;29;20040;-68
2022/11/02 01:41:34;;;;;;;10.38;1.60;;;12.50;99.90;;;;;;4958558;29;20043;-68
2022/11/02 01:44:23;;;;;;;6.53;1.42;;;12.50;99.90;;;;;;4941433;29;20062;-69
2022/11/02 01:46:48;;;;;;;9.88;1.40;;;12.50;99.90;;;;;;4940972;29;20023;-68
2022/11/02 01:49:18;;;;;;;7.65;1.55;;;12.50;99.90;;;;;;4941541;29;20030;-68
2022/11/02 01:52:03;;;;;;;8.25;1.45;;;12.50;99.90;;;;;;4941876;29;20066;-69
2022/11/02 01:54:36;;;;;;;3.13;0.93;;;12.50;99.90;;;;;;4941482;29;20078;-68
2022/11/02 01:57:06;;;;;;;3.85;1.30;;;12.40;99.90;;;;;;4941268;29;20049;-68
2022/11/02 01:59:37;;;;;;;9.80;1.90;;;12.50;99.90;;;;;;4958593;29;20040;-68
2022/11/02 02:02:04;;;;;;;;;;;12.40;99.90;;;;;;4959097;29;20081;-68
2022/11/02 02:04:32;;;;;;;9.25;1.30;;;12.40;99.90;;;;;;4941441;29;19906;-68
2022/11/02 02:06:58;;;;;;;7.00;1.65;;;12.30;99.90;;;;;;4941083;29;20062;-68
2022/11/02 02:09:25;;;;;;;7.55;1.70;;;12.20;99.90;;;;;;4941426;29;20023;-68
2022/11/02 02:11:50;;;;;;;10.48;2.15;;;12.20;99.90;;;;;;4941298;29;20027;-68
2022/11/02 02:14:18;;;;;;;8.23;1.40;;;12.20;99.90;;;;;;4958549;29;20038;-68
2022/11/02 02:16:44;;;;;;;10.75;1.45;;;12.10;99.90;;;;;;4941762;29;20059;-68
2022/11/02 02:19:24;;;;;;;6.43;1.40;;;12.30;99.90;;;;;;4941314;28;20023;-68
2022/11/02 02:22:14;;;;;;;5.10;1.60;;;12.30;99.90;;;;;;4941033;29;20074;-68
2022/11/02 02:24:50;;;;;;;11.40;1.48;;;12.30;99.90;;;;;;4941377;29;20031;-68
2022/11/02 02:27:27;;;;;;;8.32;1.73;;;12.20;99.90;;;;;;4941386;29;20102;-68
2022/11/02 02:30:06;;;;;;;7.97;1.90;;;12.20;99.90;;;;;;4940595;29;20041;-68
2022/11/02 02:32:43;;;;;;;7.63;2.00;;;12.10;99.90;;;;;;4941485;29;20046;-68
2022/11/02 02:35:23;;;;;;;9.43;1.90;;;12.10;99.90;;;;;;4940287;29;20499;-68
2022/11/02 02:38:03;;;;;;;6.65;1.70;;;12.00;99.90;;;;;;4940201;29;20028;-68
2022/11/02 02:40:35;;;;;;;5.47;2.03;;;12.10;99.90;;;;;;4940438;29;20019;-68
2022/11/02 02:43:12;;;;;;;4.57;1.50;;;12.00;99.90;;;;;;4940315;29;20050;-68
2022/11/02 02:45:49;;;;;;;5.05;1.70;;;12.00;99.90;;;;;;4940022;28;20027;-68
2022/11/02 02:48:23;;;;;;;7.22;1.70;;;12.00;99.90;;;;;;4940760;29;20118;-68
2022/11/02 02:50:53;;;;;;;9.43;1.80;;;12.10;99.90;;;;;;4957161;29;20054;-68
2022/11/02 02:53:25;;;;;;;4.78;1.45;;;12.10;99.90;;;;;;4940646;29;20047;-68
2022/11/02 02:55:51;;;;;;;10.65;1.73;;;12.20;99.90;;;;;;4957623;28;20113;-68
2022/11/02 02:58:31;;;;;;;4.63;1.73;;;12.10;99.90;;;;;;4940102;29;20498;-68
2022/11/02 03:00:59;;;;;;;6.40;1.83;;;12.00;99.90;;;;;;4940697;29;20050;-68
2022/11/02 03:03:27;;;;;;;11.50;2.42;;;12.00;99.90;;;;;;4957343;29;20023;-68
2022/11/02 03:06:08;;;;;;;6.68;2.15;;;12.00;99.90;;;;;;4956746;28;20058;-68
2022/11/02 03:08:36;;;;;;;7.20;2.15;;;11.90;99.90;;;;;;4939996;29;20034;-68
2022/11/02 03:11:15;;;;;;;9.18;2.53;;;11.90;99.90;;;;;;4940807;29;20023;-68
2022/11/02 03:14:09;;;;;;;10.20;2.00;;;11.90;99.90;;;;;;4940035;29;20479;-68
2022/11/02 03:16:46;;;;;;;5.45;1.80;;;12.00;99.90;;;;;;4938142;28;20053;-68
2022/11/02 03:19:38;;;;;;;7.03;1.85;;;12.10;99.90;;;;;;4939632;29;20019;-68
2022/11/02 03:22:13;;;;;;;8.20;1.38;;;12.10;99.90;;;;;;4940007;29;20039;-68
2022/11/02 03:24:56;;;;;;;13.30;2.10;;;12.10;99.90;;;;;;4939513;29;20023;-68
2022/11/02 03:27:38;;;;;;;6.40;1.75;;;12.10;99.90;;;;;;4939535;29;20035;-68
2022/11/02 03:30:12;;;;;;;7.43;1.85;;;12.10;99.90;;;;;;4940175;29;20031;-68
2022/11/02 03:32:47;;;;;;;8.45;2.13;;;12.10;99.90;;;;;;4938379;29;20024;-68
2022/11/02 03:35:34;;;;;;;6.55;1.85;;;12.10;99.90;;;;;;4939288;29;20028;-68
2022/11/02 03:38:16;;;;;;;9.20;1.80;;;12.10;99.90;;;;;;4940082;29;20118;-68
2022/11/02 03:40:45;;;;;;;6.63;1.42;;;12.20;99.90;;;;;;4956833;29;20019;-68
2022/11/02 03:43:13;;;;;;;10.93;2.40;;;12.30;99.90;;;;;;4940363;29;20027;-68
2022/11/02 03:45:42;;;;;;;4.22;1.40;;;12.30;99.90;;;;;;4938857;28;20027;-68
2022/11/02 03:48:11;;;;;;;15.23;2.15;;;12.40;99.90;;;;;;4938824;29;20023;-68
2022/11/02 03:50:40;;;;;;;9.20;2.17;;;12.30;99.90;;;;;;4939207;29;20078;-68
2022/11/02 03:53:11;;;;;;;8.60;1.40;;;12.30;99.90;;;;;;4955974;29;20050;-68
2022/11/02 03:55:41;;;;;;;4.28;1.60;;;12.30;99.90;;;;;;4955969;28;20039;-68
2022/11/02 03:58:10;;;;;;;9.00;1.95;;;12.40;99.90;;;;;;4956010;29;20066;-68
2022/11/02 04:00:37;;;;;;;5.63;1.35;;;12.50;99.90;;;;;;4938457;29;20509;-68
2022/11/02 04:03:05;;;;;;;13.85;2.10;;;12.60;99.90;;;;;;4955831;29;20027;-68
2022/11/02 04:05:33;;;;;;;5.38;1.55;;;12.60;99.90;;;;;;4954741;28;20031;-68
2022/11/02 04:16:13;;;;;;;6.72;1.85;;;12.80;99.90;;;;;;4956106;28;20042;-68
2022/11/02 04:21:23;;;;;;;12.82;1.73;;;12.80;99.90;;;;;;4956101;29;20135;-68
2022/11/02 04:26:32;;;;;;;11.98;1.90;;;12.90;99.90;;;;;;4955476;28;20038;-68
2022/11/02 04:28:58;;;;;;;12.95;2.20;;;12.80;99.90;;;;;;4955774;29;20023;-68
2022/11/02 04:31:23;;;;;;;5.88;1.48;;;12.70;99.90;;;;;;4955411;29;20034;-68
2022/11/02 04:33:49;;;;;;;12.57;1.90;;;12.60;99.90;;;;;;4938211;29;20023;-68
2022/11/02 04:36:14;;;;;;;7.72;1.50;;;12.50;99.90;;;;;;4955592;28;20118;-68
2022/11/02 04:38:40;;;;;;;12.35;2.10;;;12.50;99.90;;;;;;4955444;29;20038;-68
2022/11/02 04:44:02;;;;;;;7.07;2.58;;;12.40;99.90;;;;;;4955423;28;20054;-68
2022/11/02 04:46:31;;;;;;;10.55;1.50;;;12.60;99.90;;;;;;4938007;29;20034;-68
2022/11/02 04:48:57;;;;;;;5.57;1.42;;;12.60;99.90;;;;;;4955757;29;20031;-68
2022/11/02 04:51:24;;;;;;;10.15;2.08;;;12.70;99.90;;;;;;4938389;29;20020;-68
2022/11/02 04:53:51;;;;;;;12.05;1.30;;;12.70;99.90;;;;;;4955468;29;20064;-68
2022/11/02 04:56:17;;;;;;;7.20;1.60;;;12.70;99.90;;;;;;4964792;23;20046;-66
2022/11/02 04:58:43;;;;;;;5.70;1.58;;;12.60;99.90;;;;;;4974682;28;20071;-66
2022/11/02 05:01:13;;;;;;;3.97;1.10;;;12.50;99.90;;;;;;4957550;28;20466;-66
2022/11/02 05:03:39;;;;;;;9.27;1.85;;;12.40;99.90;;;;;;4974880;28;20041;-66
2022/11/02 05:06:05;;;;;;;9.98;2.10;;;12.40;99.90;;;;;;4956987;28;20031;-66
2022/11/02 05:08:31;;;;;;;12.88;2.03;;;12.60;99.90;;;;;;4957644;28;20034;-66
2022/11/02 05:10:58;;;;;;;8.68;1.63;;;12.70;99.90;;;;;;4958171;28;20029;-66
2022/11/02 05:13:24;;;;;;;12.48;2.08;;;12.60;99.90;;;;;;4974774;28;20043;-66
2022/11/02 05:15:50;;;;;;;10.85;1.83;;;12.60;99.90;;;;;;4958164;28;20101;-66
2022/11/02 05:18:16;;;;;;;7.82;1.42;;;12.50;99.90;;;;;;4974649;28;20031;-66
2022/11/02 05:20:42;;;;;;;6.60;1.75;;;12.60;99.90;;;;;;4957280;28;20030;-66
2022/11/02 05:23:07;;;;;;;6.45;1.90;;;12.70;99.90;;;;;;4957778;28;20046;-66
2022/11/02 05:25:33;;;;;;;9.65;1.73;;;12.60;99.90;;;;;;4975384;28;20030;-66
2022/11/02 05:27:59;;;;;;;4.70;1.40;;;12.70;99.90;;;;;;4974298;28;20027;-66
2022/11/02 05:30:24;;;;;;;9.57;2.20;;;12.70;99.90;;;;;;4974868;28;20027;-66
2022/11/02 05:32:55;;;;;;;10.15;1.58;;;12.70;99.90;;;;;;4957090;28;20023;-66
2022/11/02 05:35:20;;;;;;;10.88;2.20;;;12.70;99.90;;;;;;4974598;28;20025;-66
2022/11/02 05:37:46;;;;;;;9.23;1.88;;;12.70;99.90;;;;;;4956954;28;20027;-66
2022/11/02 05:40:11;;;;;;;12.00;1.70;;;12.60;99.90;;;;;;4957623;28;20114;-66
2022/11/02 05:42:37;;;;;;;9.07;1.33;;;12.70;99.90;;;;;;4974110;28;20031;-66
2022/11/02 05:45:03;;;;;;;8.02;1.65;;;12.60;99.90;;;;;;4956777;28;20031;-66
2022/11/02 05:47:28;;;;;;;6.50;1.45;;;12.60;99.90;;;;;;4956738;28;20026;-66
2022/11/02 05:49:53;;;;;;;8.18;1.45;;;12.50;99.90;;;;;;4974070;28;20053;-66
2022/11/02 05:52:19;;;;;;;9.23;1.90;;;12.60;99.90;;;;;;4974048;28;20034;-66
2022/11/02 05:54:45;;;;;;;7.22;1.83;;;12.60;99.90;;;;;;4957023;28;20027;-66
2022/11/02 05:57:10;;;;;;;7.22;1.42;;;12.60;99.90;;;;;;4977471;28;20073;-66
2022/11/02 05:59:36;;;;;;;8.23;1.58;;;12.60;99.90;;;;;;4977456;28;20077;-66
2022/11/02 06:02:01;;;;;;;10.73;1.73;;;12.60;99.90;;;;;;4960139;28;20019;-66
2022/11/02 06:04:27;;;;;;;11.48;2.05;;;12.60;99.90;;;;;;4960189;28;20421;-66
2022/11/02 06:06:52;;;;;;;8.90;1.67;;;12.60;99.90;;;;;;4959950;28;20027;-67
2022/11/02 06:09:18;;;;;;;9.10;1.90;;;12.60;99.90;;;;;;4959924;28;20023;-66
2022/11/02 06:11:43;;;;;;;7.63;1.70;;;12.60;99.90;;;;;;4960023;28;20049;-66
2022/11/02 06:14:09;;;;;;;8.38;1.73;;;12.60;99.90;;;;;;4959831;28;20576;-66
2022/11/02 06:16:35;;;;;;;6.50;1.20;;;12.50;99.90;;;;;;4977077;28;20101;-66
2022/11/02 06:19:00;;;;;;;7.88;1.50;;;12.50;99.90;;;;;;4959823;28;20038;-66
2022/11/02 06:21:25;;;;;;;6.85;1.40;;;12.50;99.90;;;;;;4960308;28;20022;-66
2022/11/02 06:23:51;;;;;;;6.57;1.52;;;12.50;99.90;;;;;;4959731;28;20046;-66
2022/11/02 06:26:17;;;;;;;9.35;1.60;;;12.40;99.90;;;;;;4977110;28;20054;-66
2022/11/02 06:28:42;;;;;;;3.95;1.33;;;12.30;99.90;;;;;;4977378;28;20027;-66
2022/11/02 06:31:08;;;;;;;10.32;2.00;;;12.30;99.90;;;;;;4959591;28;20031;-66
2022/11/02 06:33:33;;;;;;;9.10;1.67;;;12.30;99.90;;;;;;4976842;28;20027;-66
2022/11/02 06:35:59;;;;;;;7.97;1.63;;;12.30;99.90;;;;;;4959993;28;20038;-66
2022/11/02 06:38:24;;;;;;;7.60;1.73;;;12.20;99.90;;;;;;4959408;28;20031;-66
2022/11/02 06:40:58;;;;;;;6.07;1.52;;;12.20;99.90;;;;;;4960548;28;20078;-66
2022/11/02 06:43:24;;;;;;;8.52;1.70;;;12.30;99.90;;;;;;4976716;28;20080;-66
2022/11/02 06:45:52;;;;;;;8.77;2.22;;;12.20;99.90;;;;;;4959356;28;20065;-66
2022/11/02 06:48:18;;;;;;;11.25;1.48;;;12.20;99.90;;;;;;4960109;28;20023;-66
2022/11/02 06:50:43;;;;;;;11.73;2.13;;;12.30;99.90;;;;;;4976601;28;20081;-66
2022/11/02 06:53:09;;;;;;;8.65;2.10;;;12.30;99.90;;;;;;4976470;28;20031;-66
2022/11/02 06:55:34;;;;;;;7.57;1.92;;;12.20;99.90;;;;;;4960334;28;20026;-66
2022/11/02 06:58:00;;;;;;;10.07;1.60;;;12.00;99.90;;;;;;4959058;28;20117;-66
2022/11/02 07:00:25;;;;;;;7.38;1.45;;;11.90;99.90;;;;;;4959639;28;20034;-66
2022/11/02 07:03:05;;;;;;;9.25;1.90;;;11.90;99.90;;;;;;4959234;28;20033;-66
2022/11/02 07:05:31;;;;;;;14.68;2.13;;;11.90;99.90;;;;;;4976340;28;20121;-66
2022/11/02 07:07:57;;;;;;;6.20;2.03;;;11.90;99.90;;;;;;4958702;28;20109;-66
2022/11/02 07:10:23;;;;;;;9.48;2.17;;;11.90;99.90;;;;;;4958840;28;20059;-66
2022/11/02 07:12:56;;;;;;;7.57;1.70;;;11.90;99.90;;;;;;4958838;28;20019;-66
2022/11/02 07:15:23;;;;;;;4.55;1.83;;;12.00;99.90;;;;;;4976540;28;20049;-66
2022/11/02 07:17:50;;;;;;;10.02;2.22;;;12.10;99.90;;;;;;4958609;28;20030;-66
2022/11/02 07:20:16;;;;;;;9.80;1.60;;;12.10;99.90;;;;;;4958802;28;20031;-66
2022/11/02 07:22:50;;;;;;;18.20;2.13;;;12.20;99.90;;;;;;4975832;28;20031;-66
2022/11/02 07:25:16;;;;;;;6.70;1.35;;;12.10;99.90;;;;;;4958501;28;20030;-66
2022/11/02 07:27:41;;;;;;;9.95;1.70;;;12.10;99.90;;;;;;4958502;28;20026;-66
2022/11/02 07:30:07;;;;;;;5.80;1.70;;;11.90;99.90;;;;;;4958533;28;20093;-66
2022/11/02 07:32:43;;;;;;;8.07;2.05;;;12.10;99.90;;;;;;4958716;28;20034;-66
2022/11/02 07:35:11;;;;;;;10.93;1.80;;;12.20;99.90;;;;;;4958457;28;20034;-66
2022/11/02 07:37:36;;;;;;;4.55;1.42;;;12.20;99.90;;;;;;4958513;28;20023;-66
2022/11/02 07:40:04;;;;;;;8.50;1.80;;;12.30;99.90;;;;;;4975932;28;20023;-66
2022/11/02 07:42:29;;;;;;;10.63;1.65;;;12.40;99.90;;;;;;4975597;28;20022;-66
2022/11/02 07:44:55;;;;;;;11.32;1.90;;;12.40;99.90;;;;;;4958588;28;20030;-66
2022/11/02 07:47:21;;;;;;;6.32;1.80;;;12.40;99.90;;;;;;4957986;28;20069;-66
2022/11/02 07:49:46;;;;;;;13.15;1.88;;;12.50;99.90;;;;;;4958264;28;20027;-66
2022/11/02 07:52:12;;;;;;;10.32;1.40;;;12.60;99.90;;;;;;4976239;28;20373;-66
2022/11/02 07:54:37;;;;;;;5.97;1.42;;;12.50;99.90;;;;;;4957971;28;20577;-66
2022/11/02 07:57:03;;;;;;;7.45;1.30;;;12.40;99.90;;;;;;4958276;28;20046;-66
2022/11/02 07:59:28;;;;;;;8.07;1.70;;;12.50;99.90;;;;;;4975561;28;20560;-66
2022/11/02 08:01:54;;;;;;;5.55;1.60;;;12.60;99.90;;;;;;4975251;28;20105;-66
2022/11/02 08:04:19;;;;;;;7.47;2.00;;;12.50;99.90;;;;;;4975662;28;20026;-66
2022/11/02 08:06:45;;;;;;;6.47;1.75;;;12.60;99.90;;;;;;4957962;28;20066;-66
2022/11/02 08:09:11;;;;;;;9.85;1.52;;;12.60;99.90;;;;;;4958471;28;20026;-66
2022/11/02 08:11:36;;;;;;;7.88;1.23;;;12.80;99.90;;;;;;4975364;28;20136;-66
2022/11/02 08:14:02;;;;;;;13.65;1.55;;;12.90;99.90;;;;;;4975506;28;20030;-66
2022/11/02 08:16:28;;;;;;;12.15;1.70;;;12.90;99.90;;;;;;4958649;28;20074;-66
2022/11/02 08:18:54;;;;;;;6.25;1.42;;;13.10;99.90;;;;;;4974733;28;20022;-66
2022/11/02 08:21:19;;;;;;;7.18;1.50;;;13.10;99.90;;;;;;4958001;28;20031;-66
2022/11/02 08:23:45;;;;;;;9.95;1.90;;;13.30;99.90;;;;;;4958858;28;20490;-66
2022/11/02 08:26:11;;;;;;;16.00;1.65;;;13.40;99.90;;;;;;4975110;28;20030;-66
2022/11/02 08:28:39;;;;;;;7.10;1.77;;;13.50;99.90;;;;;;4975291;28;20030;-66
2022/11/02 08:31:06;;;;;;;5.95;1.42;;;13.50;99.90;;;;;;4975352;28;20019;-66
2022/11/02 08:33:32;;;;;;;6.57;1.35;;;13.50;99.90;;;;;;4958213;28;20169;-66
2022/11/02 08:36:03;;;;;;;13.02;1.80;;;13.50;99.90;;;;;;4975033;28;20039;-66
2022/11/02 08:38:29;;;;;;;7.57;2.00;;;13.60;99.90;;;;;;4957919;28;20045;-67
2022/11/02 08:40:55;;;;;;;5.80;1.30;;;13.60;99.90;;;;;;4957335;28;20805;-66
2022/11/02 08:43:20;;;;;;;6.03;1.23;;;13.60;99.90;;;;;;4974940;28;20031;-66
2022/11/02 08:45:46;;;;;;;8.00;1.17;;;13.60;99.90;;;;;;4958342;28;20027;-66
2022/11/02 08:48:12;;;;;;;5.60;1.50;;;13.60;99.90;;;;;;4957208;28;20115;-66
2022/11/02 08:50:38;;;;;;;6.75;2.58;;;13.60;99.90;;;;;;4958139;28;20031;-65
2022/11/02 08:53:04;;;;;;;13.02;2.30;;;13.50;99.90;;;;;;4957249;28;20023;-65
2022/11/02 08:55:30;;;;;;;8.05;2.20;;;13.60;99.90;;;;;;4974754;28;20058;-66
2022/11/02 08:57:57;;;;;;;8.48;1.58;;;13.60;99.90;;;;;;4975004;28;20085;-66
2022/11/02 09:00:25;;;;;;;14.48;1.92;;;13.70;99.90;;;;;;4975040;28;20037;-65
2022/11/02 09:03:02;;;;;;;13.15;1.55;;;13.70;99.90;;;;;;4957139;28;20059;-65
2022/11/02 09:05:32;;;;;;;10.40;1.40;;;13.70;99.90;;;;;;4974378;28;20030;-65
2022/11/02 09:08:00;;;;;;;7.57;1.75;;;13.60;99.90;;;;;;4974404;28;20031;-65
2022/11/02 09:10:27;;;;;;;6.03;1.15;;;13.60;99.90;;;;;;4957571;28;20022;-65
2022/11/02 09:12:53;;;;;;;8.75;1.75;;;13.60;99.90;;;;;;4957334;28;20053;-65
2022/11/02 09:15:19;;;;;;;4.65;1.00;;;13.70;99.90;;;;;;4957019;28;20019;-65
2022/11/02 09:17:48;;;;;;;7.57;2.08;;;13.70;99.90;;;;;;4956883;28;20030;-65
2022/11/02 09:20:19;;;;;;;5.25;1.27;;;13.80;99.90;;;;;;4957800;28;20019;-65
2022/11/02 09:22:45;;;;;;;7.50;1.40;;;13.90;99.90;;;;;;4956936;28;20030;-66
2022/11/02 09:25:11;;;;;;;6.03;1.10;;;14.00;99.90;;;;;;4956788;28;20019;-65
2022/11/02 09:27:37;;;;;;;12.90;1.67;;;14.20;99.90;;;;;;4957249;28;20058;-66
2022/11/02 09:30:03;;;;;;;9.48;1.88;;;14.30;99.90;;;;;;4975209;28;20061;-66
2022/11/02 09:32:32;;;;;;;9.88;1.42;;;14.40;99.90;;;;;;4960590;28;20019;-65
2022/11/02 09:35:03;;;;;;;10.60;1.20;;;14.50;99.90;;;;;;4977967;28;20019;-65
2022/11/02 09:37:29;;;;;;;10.32;1.73;;;14.50;99.90;;;;;;4960499;28;20027;-65
2022/11/02 09:39:54;;;;;;;3.80;1.15;;;14.50;99.90;;;;;;4960553;28;20026;-65
2022/11/02 09:42:41;;;;;;;12.10;1.33;;;14.50;99.90;;;;;;4960488;28;20026;-65
2022/11/02 09:45:12;;;;;;;8.45;2.25;;;14.50;99.90;;;;;;4961225;28;20030;-65
2022/11/02 09:47:46;;;;;;;8.00;1.25;;;14.50;99.90;;;;;;4960813;28;20037;-65
2022/11/02 09:50:20;;;;;;;8.85;1.27;;;14.60;99.90;;;;;;4960294;28;20033;-65
2022/11/02 09:52:55;;;;;;;8.55;1.30;;;14.80;99.90;;;;;;4977691;28;20023;-65
2022/11/02 09:55:26;;;;;;;5.53;1.40;;;15.00;99.90;;;;;;4960237;28;20030;-65
2022/11/02 09:57:59;;;;;;;4.88;1.08;;;15.00;99.90;;;;;;4960107;28;20494;-65
2022/11/02 10:00:29;;;;;;;5.68;1.58;;;15.00;99.90;;;;;;4960139;28;20077;-65
2022/11/02 10:03:07;;;;;;;7.38;1.77;;;15.10;99.90;;;;;;4977391;28;20019;-65
2022/11/02 10:06:01;;;;;;;7.60;1.52;;;15.20;99.90;;;;;;4960855;28;20053;-66
2022/11/02 10:09:04;;;;;;;8.98;1.40;;;15.20;99.90;;;;;;4960086;28;20030;-65
2022/11/02 10:11:58;;;;;;;8.73;0.90;;;15.00;99.90;;;;;;4977250;28;20030;-65
2022/11/02 10:14:38;;;;;;;9.02;1.30;;;15.00;99.90;;;;;;4977426;28;20023;-66
2022/11/02 10:17:12;;;;;;;10.80;1.48;;;15.10;99.90;;;;;;4960385;28;20034;-66
2022/11/02 10:19:43;;;;;;;4.03;0.90;;;15.00;99.90;;;;;;4960209;28;20478;-66
2022/11/02 10:22:13;;;;;;;7.10;1.90;;;14.90;99.90;;;;;;4977118;28;20037;-66
2022/11/02 10:24:43;;;;;;;6.63;1.00;;;14.90;99.90;;;;;;4959759;28;20038;-65
2022/11/02 10:27:22;;;;;;;12.38;1.80;;;14.80;99.90;;;;;;4959439;28;20490;-65
2022/11/02 10:30:03;;;;;;;11.60;1.33;;;14.90;99.90;;;;;;4959715;28;20114;-66
2022/11/02 10:32:30;;;;;;;9.18;1.25;;;15.00;99.90;;;;;;4960448;28;20061;-66
2022/11/02 10:34:58;;;;;;;7.35;1.27;;;15.20;99.90;;;;;;4959769;28;20041;-65
2022/11/02 10:37:43;;;;;;;7.57;1.23;;;15.30;99.90;;;;;;4976869;28;20023;-66
2022/11/02 10:40:43;;;;;;;10.57;1.90;;;15.50;99.90;;;;;;4959440;28;20034;-65
2022/11/02 10:43:25;;;;;;;13.45;1.52;;;15.40;99.90;;;;;;4959437;28;20058;-65
2022/11/02 10:45:51;;;;;;;7.47;1.00;;;15.30;99.90;;;;;;4977148;28;20030;-65
2022/11/02 10:48:25;;;;;;;7.15;1.50;;;15.20;99.90;;;;;;4959296;28;20029;-66
2022/11/02 10:51:01;;;;;;;9.30;2.08;;;15.10;99.90;;;;;;4959345;28;20050;-66
2022/11/02 10:53:35;;;;;;;10.30;1.23;;;15.20;99.90;;;;;;4976668;28;20511;-65
2022/11/02 10:56:22;;;;;;;4.10;0.90;;;15.40;99.90;;;;;;4958927;28;20052;-66
2022/11/02 10:59:10;;;;;;;8.52;1.75;;;15.70;99.90;;;;;;4959103;28;20042;-65
2022/11/02 11:01:35;;;;;;;4.88;0.85;;;15.80;99.90;;;;;;4976261;28;20026;-66
2022/11/02 11:04:17;;;;;;;7.55;1.33;;;15.90;99.90;;;;;;4958999;28;20038;-66
2022/11/02 11:06:43;;;;;;;5.70;1.02;;;16.10;99.90;;;;;;4976098;28;20031;-66
2022/11/02 11:09:22;;;;;;;6.45;1.00;;;16.30;99.90;;;;;;4959173;28;20049;-66
2022/11/02 11:12:19;;;;;;;6.93;1.50;;;16.50;99.90;;;;;;4976379;28;20031;-66
2022/11/02 11:15:01;;;;;;;7.07;1.73;;;16.70;99.90;;;;;;4976706;28;20018;-65
2022/11/02 11:17:32;;;;;;;7.43;1.30;;;16.60;99.90;;;;;;4958700;28;20031;-66
2022/11/02 11:19:58;;;;;;;7.57;1.52;;;16.60;99.90;;;;;;4958833;28;20030;-66
2022/11/02 11:22:32;;;;;;;8.57;1.25;;;16.70;99.90;;;;;;4958631;28;20398;-66
2022/11/02 11:25:21;;;;;;;7.97;2.00;;;16.80;99.90;;;;;;4958913;28;20038;-66
2022/11/02 11:27:53;;;;;;;8.07;1.30;;;16.90;99.90;;;;;;4975813;28;20035;-66
2022/11/02 11:30:31;;;;;;;7.43;1.45;;;16.90;99.90;;;;;;4959369;28;20026;-66
2022/11/02 11:32:58;;;;;;;6.63;1.00;;;16.90;99.90;;;;;;4975807;28;20034;-66
2022/11/02 11:35:47;;;;;;;7.60;1.95;;;16.90;99.90;;;;;;4975774;28;20026;-66
2022/11/02 11:38:26;;;;;;;4.18;1.27;;;16.90;99.90;;;;;;4975505;28;20047;-66
2022/11/02 11:40:57;;;;;;;7.00;1.55;;;17.00;99.90;;;;;;4975951;28;20105;-66
2022/11/02 11:43:26;;;;;;;6.72;2.10;;;17.20;99.90;;;;;;4975950;28;20019;-66
2022/11/02 11:45:54;;;;;;;7.10;1.10;;;17.20;99.90;;;;;;4958079;28;20030;-66
2022/11/02 11:48:35;;;;;;;9.82;1.90;;;17.30;99.90;;;;;;4958424;28;20027;-66
2022/11/02 11:51:04;;;;;;;3.42;1.30;;;17.10;99.90;;;;;;4975605;28;20057;-66
2022/11/02 11:53:29;;;;;;;3.45;1.23;;;17.30;99.90;;;;;;4957470;28;20019;-66
2022/11/02 11:55:58;;;;;;;10.20;1.50;;;17.40;99.90;;;;;;4975335;28;20034;-66
2022/11/02 11:58:29;;;;;;;5.53;1.40;;;17.50;99.90;;;;;;4975364;28;20069;-66
2022/11/02 12:01:14;;;;;;;8.40;1.30;;;17.30;99.90;;;;;;4958507;28;20031;-66
2022/11/02 12:03:55;;;;;;;8.05;1.60;;;17.30;99.90;;;;;;4975295;28;20066;-66
2022/11/02 12:06:30;;;;;;;7.07;1.02;;;17.20;99.90;;;;;;4957753;28;20041;-66
2022/11/02 12:09:26;;;;;;;6.55;1.48;;;17.10;99.90;;;;;;4957911;28;20026;-66
2022/11/02 12:12:16;;;;;;;10.23;1.58;;;17.20;99.90;;;;;;4975653;28;20027;-66
2022/11/02 12:14:58;;;;;;;4.93;1.38;;;17.80;99.90;;;;;;4957802;28;20027;-67
2022/11/02 12:17:55;;;;;;;5.80;1.30;;;18.20;99.90;;;;;;4974953;28;20051;-66
2022/11/02 12:20:48;;;;;;;5.90;1.60;;;18.50;99.90;;;;;;4941558;28;20398;-66
2022/11/02 12:23:16;;;;;;;4.68;1.02;;;18.60;99.90;;;;;;4957594;28;20026;-66
2022/11/02 12:26:17;;;;;;;3.78;1.00;;;18.80;99.90;;;;;;4975074;28;20121;-67
2022/11/02 12:29:21;;;;;;;4.93;1.02;;;18.70;99.90;;;;;;4957611;28;20114;-66
2022/11/02 12:32:30;;;;;;;5.93;1.27;;;18.80;99.90;;;;;;4959542;28;20038;-67
2022/11/02 12:35:04;;;;;;;3.63;1.10;;;19.00;99.90;;;;;;4926659;28;20077;-66
2022/11/02 12:37:56;;;;;;;6.10;2.03;;;19.10;99.90;;;;;;4957399;28;20027;-66
2022/11/02 12:40:47;;;;;;;8.30;1.73;;;19.30;99.90;;;;;;4953050;28;20093;-67
2022/11/02 12:43:31;;;;;;;5.22;1.20;;;19.50;99.90;;;;;;4952026;28;20034;-67
2022/11/02 12:46:13;;;;;;;5.90;1.10;;;19.80;99.90;;;;;;4957084;28;20537;-67
2022/11/02 12:49:07;;;;;;;4.13;1.10;;;19.50;99.90;;;;;;4957291;28;20509;-67
2022/11/02 12:52:14;;;;;;;3.50;0.88;;;18.80;99.90;;;;;;4957294;28;20030;-67
2022/11/02 12:54:48;;;;;;;7.43;1.08;;;18.00;99.90;;;;;;4974771;28;20027;-67
2022/11/02 12:57:24;;;;;;;7.57;1.45;;;17.30;99.90;;;;;;4974747;28;20031;-67
2022/11/02 12:59:53;;;;;;;8.73;1.92;;;17.20;99.90;;;;;;4957247;28;20059;-67
2022/11/02 13:02:46;;;;;;;4.45;1.52;;;17.30;99.90;;;;;;4957150;28;20038;-67
2022/11/02 13:05:20;;;;;;;4.60;0.75;;;17.80;99.90;;;;;;4961181;28;20419;-65
2022/11/02 13:07:52;;;;;;;5.50;1.25;;;18.40;99.90;;;;;;4961009;28;20026;-65
2022/11/02 13:10:21;;;;;;;3.30;1.00;;;18.80;99.90;;;;;;4961243;28;20026;-65
2022/11/02 13:12:57;;;;;;;9.45;1.30;;;18.90;99.90;;;;;;4979071;28;20027;-66
2022/11/02 13:15:26;;;;;;;7.97;1.27;;;19.00;99.90;;;;;;4961319;28;20058;-66
2022/11/02 13:18:20;;;;;;;5.63;1.20;;;19.30;99.90;;;;;;4960937;28;20031;-65
2022/11/02 13:20:51;;;;;;;6.70;1.38;;;19.40;99.90;;;;;;4959190;28;20042;-65
2022/11/02 13:23:35;;;;;;;3.22;0.82;;;19.50;99.90;;;;;;4961347;28;20565;-65